Terminal Aerodrome Forecast
Issued by NWS Charleston, WV

Current Version | Previous Version | Graphics & Text | Print | Product List | Glossary On
Versions: 1 2 3 4 5 6 7 8 9 10 11 12 13 14 15 16 17 18 19 20 21 22 23 24
000
FTUS41 KRLX 030520
TAFEKN
TAF
KEKN 030520Z 0306/0406 00000KT P6SM SCT250
     FM031000 00000KT 5SM BR SCT200
     FM031200 20004KT P6SM FEW140
     FM031500 26009G15KT P6SM FEW060
     FM032300 24007KT P6SM VCTS SCT050CB
     FM040300 22006KT P6SM VCTS BKN030CB=

USA.gov is the U.S. government's official web portal to all federal, state and local government web resources and services.